createdAt,value
2018-04-08T00:01:41.961Z,4.78
2018-04-08T00:04:09.596Z,4.85
2018-04-08T00:06:37.123Z,4.82
2018-04-08T00:09:05.583Z,4.82
2018-04-08T00:11:33.874Z,4.80
2018-04-08T00:14:01.434Z,4.81
2018-04-08T00:16:29.566Z,5.11
2018-04-08T00:18:57.130Z,5.06
2018-04-08T00:21:24.692Z,4.94
2018-04-08T00:23:52.222Z,4.92
2018-04-08T00:26:19.722Z,4.94
2018-04-08T00:28:47.217Z,4.99
2018-04-08T00:31:14.777Z,5.33
2018-04-08T00:33:42.324Z,5.53
2018-04-08T00:36:09.885Z,5.63
2018-04-08T00:38:37.451Z,5.45
2018-04-08T00:41:05.110Z,5.31
2018-04-08T00:43:32.650Z,5.37
2018-04-08T00:46:00.218Z,5.40
2018-04-08T00:48:28.377Z,5.26
2018-04-08T00:50:55.930Z,5.18
2018-04-08T00:53:23.834Z,5.03
2018-04-08T00:55:51.406Z,4.94
2018-04-08T00:58:18.941Z,4.83
2018-04-08T01:00:47.393Z,4.80
2018-04-08T01:03:15.052Z,4.76
2018-04-08T01:05:42.591Z,4.72
2018-04-08T01:08:10.155Z,4.71
2018-04-08T01:10:37.722Z,4.63
2018-04-08T01:13:05.381Z,4.60
2018-04-08T01:15:32.932Z,4.57
2018-04-08T01:18:00.412Z,4.58
2018-04-08T01:20:28.077Z,4.57
2018-04-08T01:22:55.571Z,4.55
2018-04-08T01:25:23.061Z,4.53
2018-04-08T01:27:50.588Z,4.52
2018-04-08T01:30:18.084Z,4.51
2018-04-08T01:32:45.573Z,4.48
2018-04-08T01:35:13.602Z,4.42
2018-04-08T01:37:43.087Z,4.46
2018-04-08T01:40:10.659Z,4.46
2018-04-08T01:42:38.196Z,4.41
2018-04-08T01:45:06.045Z,4.41
2018-04-08T01:47:33.673Z,4.41
2018-04-08T01:50:01.183Z,4.43
2018-04-08T01:52:28.694Z,4.49
2018-04-08T01:54:56.227Z,4.50
2018-04-08T01:57:23.832Z,4.56
2018-04-08T01:59:51.344Z,4.64
2018-04-08T02:02:21.391Z,4.70
2018-04-08T02:04:48.965Z,4.75
2018-04-08T02:07:16.486Z,4.84
2018-04-08T02:09:44.030Z,4.90
2018-04-08T02:12:11.574Z,4.94
2018-04-08T02:14:40.078Z,5.07
2018-04-08T02:17:08.057Z,5.08
2018-04-08T02:19:36.097Z,5.00
2018-04-08T02:22:03.683Z,4.95
2018-04-08T02:24:32.735Z,4.90
2018-04-08T02:27:00.265Z,4.85
2018-04-08T02:29:27.817Z,4.81
2018-04-08T02:31:56.158Z,4.78
2018-04-08T02:34:25.363Z,4.82
2018-04-08T02:36:53.789Z,4.77
2018-04-08T02:39:21.509Z,4.76
2018-04-08T02:41:49.046Z,4.76
2018-04-08T02:44:17.300Z,4.85
2018-04-08T02:46:46.470Z,4.80
2018-04-08T02:49:14.201Z,4.84
2018-04-08T02:51:41.750Z,4.75
2018-04-08T02:54:09.355Z,4.65
2018-04-08T02:56:37.282Z,4.66
2018-04-08T02:59:05.324Z,4.74
2018-04-08T03:01:33.196Z,4.63
2018-04-08T03:04:00.753Z,4.52
2018-04-08T03:06:28.278Z,4.44
2018-04-08T03:08:55.825Z,4.30
2018-04-08T03:11:23.614Z,4.20
2018-04-08T03:13:52.128Z,4.13
2018-04-08T03:16:19.824Z,4.12
2018-04-08T03:18:47.391Z,4.07
2018-04-08T03:21:14.969Z,4.11
2018-04-08T03:23:42.510Z,4.15
2018-04-08T03:26:10.019Z,4.11
2018-04-08T03:28:37.522Z,4.11
2018-04-08T03:31:05.008Z,4.08
2018-04-08T03:33:32.499Z,4.13
2018-04-08T03:36:00.945Z,4.12
2018-04-08T03:38:28.439Z,4.15
2018-04-08T03:40:55.956Z,4.14
2018-04-08T03:43:23.807Z,4.11
2018-04-08T03:45:51.830Z,4.11
2018-04-08T03:48:19.385Z,4.11
2018-04-08T03:50:46.923Z,4.07
2018-04-08T03:53:14.454Z,3.98
2018-04-08T03:55:42.009Z,3.95
2018-04-08T03:58:09.668Z,3.88
2018-04-08T04:00:38.486Z,3.89
2018-04-08T04:03:06.180Z,4.01
2018-04-08T04:05:33.724Z,3.95
2018-04-08T04:08:01.296Z,3.86
2018-04-08T04:10:28.832Z,3.76
2018-04-08T04:12:56.366Z,3.64
2018-04-08T04:15:23.925Z,3.63
2018-04-08T04:17:51.467Z,3.69
2018-04-08T04:20:30.672Z,3.73
2018-04-08T04:23:10.098Z,3.72
2018-04-08T04:28:37.352Z,3.71
2018-04-08T04:31:04.922Z,3.76
2018-04-08T04:33:32.793Z,3.76
2018-04-08T04:36:00.300Z,3.80
2018-04-08T04:38:28.945Z,3.75
2018-04-08T04:40:56.597Z,3.79
2018-04-08T04:43:24.153Z,3.80
2018-04-08T04:45:53.134Z,3.74
2018-04-08T04:48:20.751Z,3.73
2018-04-08T04:50:48.296Z,3.72
2018-04-08T04:53:15.786Z,3.75
2018-04-08T04:55:43.270Z,3.81
2018-04-08T04:58:10.768Z,3.88
2018-04-08T05:00:39.207Z,3.94
2018-04-08T05:03:06.787Z,4.00
2018-04-08T05:05:34.332Z,4.04
2018-04-08T05:08:01.874Z,4.13
2018-04-08T05:10:29.472Z,4.16
2018-04-08T05:12:57.169Z,4.25
2018-04-08T05:15:24.693Z,4.30
2018-04-08T05:17:52.255Z,4.42
2018-04-08T05:20:19.797Z,4.51
2018-04-08T05:22:47.335Z,4.64
2018-04-08T05:25:14.891Z,4.74
2018-04-08T05:27:44.053Z,4.85
2018-04-08T05:30:11.630Z,4.99
2018-04-08T05:32:39.189Z,5.14
2018-04-08T05:35:06.759Z,5.20
2018-04-08T05:37:35.009Z,5.24
2018-04-08T05:40:02.573Z,5.28
2018-04-08T05:42:30.121Z,5.36
2018-04-08T05:44:57.688Z,5.42
2018-04-08T05:47:25.234Z,5.54
2018-04-08T05:49:52.773Z,5.61
2018-04-08T05:52:20.351Z,5.73
2018-04-08T05:54:47.881Z,5.84
2018-04-08T05:57:16.090Z,5.98
2018-04-08T05:59:44.439Z,6.16
2018-04-08T06:02:12.133Z,6.32
2018-04-08T06:04:41.299Z,6.46
2018-04-08T06:07:09.083Z,6.54
2018-04-08T06:09:37.453Z,6.59
2018-04-08T06:12:05.940Z,6.64
2018-04-08T06:14:34.653Z,6.81
2018-04-08T06:17:02.200Z,6.94
2018-04-08T06:19:29.740Z,7.15
2018-04-08T06:21:59.208Z,7.44
2018-04-08T06:24:28.386Z,7.58
2018-04-08T06:29:46.081Z,8.06
2018-04-08T06:32:13.587Z,8.52
2018-04-08T06:34:41.096Z,8.77
2018-04-08T06:37:08.591Z,8.95
2018-04-08T06:39:36.076Z,8.99
2018-04-08T06:42:05.135Z,9.05
2018-04-08T06:44:34.455Z,9.23
2018-04-08T06:47:02.055Z,9.34
2018-04-08T06:49:29.658Z,9.67
2018-04-08T06:51:57.204Z,9.73
2018-04-08T06:54:24.815Z,9.77
2018-04-08T06:56:52.541Z,10.05
2018-04-08T06:59:20.034Z,9.97
2018-04-08T07:01:47.571Z,10.00
2018-04-08T07:04:15.202Z,10.05
2018-04-08T07:06:42.681Z,10.29
2018-04-08T07:09:10.427Z,10.37
2018-04-08T07:11:38.220Z,10.54
2018-04-08T07:14:05.703Z,10.68
2018-04-08T07:16:33.199Z,10.64
2018-04-08T07:19:00.716Z,10.71
2018-04-08T07:21:28.230Z,10.82
2018-04-08T07:23:55.718Z,11.11
2018-04-08T07:26:23.216Z,11.26
2018-04-08T07:28:51.198Z,11.45
2018-04-08T07:31:18.981Z,11.56
2018-04-08T07:33:46.486Z,11.46
2018-04-08T07:36:14.002Z,11.58
2018-04-08T07:38:41.492Z,11.59
2018-04-08T07:41:09.685Z,11.82
2018-04-08T07:43:37.236Z,12.27
2018-04-08T07:46:04.792Z,12.41
2018-04-08T07:48:33.207Z,12.60
2018-04-08T07:51:00.834Z,12.53
2018-04-08T07:53:28.578Z,12.74
2018-04-08T07:55:56.143Z,12.56
2018-04-08T07:58:23.682Z,12.95
2018-04-08T08:00:51.215Z,12.88
2018-04-08T08:03:19.149Z,12.81
2018-04-08T08:05:46.698Z,13.06
2018-04-08T08:08:14.442Z,13.09
2018-04-08T08:10:43.127Z,13.00
2018-04-08T08:13:10.861Z,13.20
2018-04-08T08:15:38.671Z,14.01
2018-04-08T08:18:06.773Z,14.19
2018-04-08T08:20:34.741Z,14.09
2018-04-08T08:23:02.260Z,14.44
2018-04-08T08:25:29.753Z,14.07
2018-04-08T08:27:57.238Z,13.75
2018-04-08T08:30:24.716Z,13.67
2018-04-08T08:32:52.230Z,14.20
2018-04-08T08:35:20.225Z,14.54
2018-04-08T08:37:49.561Z,14.83
2018-04-08T08:40:17.143Z,14.88
2018-04-08T08:42:44.674Z,15.31
2018-04-08T08:45:12.528Z,15.19
2018-04-08T08:47:40.044Z,14.93
2018-04-08T08:53:12.296Z,15.16
2018-04-08T08:55:39.888Z,14.77
2018-04-08T08:58:07.425Z,15.05
2018-04-08T09:00:34.951Z,15.44
2018-04-08T09:03:02.522Z,15.65
2018-04-08T09:20:35.738Z,16.33
2018-04-08T09:23:21.951Z,16.25
2018-04-08T09:26:01.217Z,16.36
2018-04-08T09:28:28.713Z,16.76
2018-04-08T09:30:56.204Z,16.99
2018-04-08T09:33:24.798Z,17.01
2018-04-08T09:35:52.603Z,17.10
2018-04-08T09:38:20.301Z,17.05
2018-04-08T09:40:47.845Z,16.94
2018-04-08T09:43:15.795Z,17.04
2018-04-08T09:45:43.344Z,17.35
2018-04-08T09:48:10.887Z,17.70
2018-04-08T09:50:40.044Z,17.76
2018-04-08T09:53:07.658Z,17.93
2018-04-08T09:55:35.264Z,17.74
2018-04-08T09:58:03.757Z,17.83
2018-04-08T10:00:38.266Z,17.94
2018-04-08T10:03:11.920Z,17.97
2018-04-08T10:05:39.608Z,18.30
2018-04-08T10:08:07.083Z,18.40
2018-04-08T10:10:38.424Z,18.52
2018-04-08T10:13:06.386Z,18.58
2018-04-08T10:15:34.789Z,18.45
2018-04-08T10:18:07.366Z,18.62
2018-04-08T10:20:39.077Z,18.74
2018-04-08T10:23:07.261Z,18.62
2018-04-08T10:25:34.861Z,18.75
2018-04-08T10:28:02.594Z,18.94
2018-04-08T10:30:30.122Z,19.05
2018-04-08T10:32:57.613Z,18.95
2018-04-08T10:35:25.472Z,19.17
2018-04-08T10:37:57.990Z,19.31
2018-04-08T10:40:25.601Z,19.44
2018-04-08T10:42:53.185Z,19.59
2018-04-08T10:45:20.822Z,19.42
2018-04-08T10:47:50.039Z,19.33
2018-04-08T10:50:17.710Z,19.28
2018-04-08T10:52:45.494Z,19.77
2018-04-08T10:57:51.172Z,19.88
2018-04-08T11:00:18.722Z,19.77
2018-04-08T11:02:46.277Z,19.84
2018-04-08T11:05:13.897Z,20.21
2018-04-08T11:07:41.503Z,20.16
2018-04-08T11:10:09.112Z,20.12
2018-04-08T11:12:36.660Z,20.14
2018-04-08T11:15:04.266Z,20.08
2018-04-08T11:17:31.843Z,20.57
2018-04-08T11:19:59.408Z,20.60
2018-04-08T11:22:28.298Z,20.73
2018-04-08T11:24:56.254Z,20.71
2018-04-08T11:27:24.121Z,20.62
2018-04-08T11:29:51.670Z,20.88
2018-04-08T11:32:19.293Z,21.07
2018-04-08T11:34:46.852Z,21.34
2018-04-08T11:37:14.400Z,21.57
2018-04-08T11:39:41.981Z,20.97
2018-04-08T11:42:09.555Z,22.11
2018-04-08T11:44:38.218Z,23.11
2018-04-08T11:47:06.431Z,24.74
2018-04-08T11:49:33.942Z,26.03
2018-04-08T11:52:01.438Z,26.48
2018-04-08T11:54:28.924Z,27.36
2018-04-08T11:56:56.430Z,26.33
2018-04-08T11:59:24.135Z,26.93
2018-04-08T12:01:51.775Z,26.53
2018-04-08T12:04:19.336Z,26.88
2018-04-08T12:06:46.883Z,26.41
2018-04-08T12:09:14.463Z,26.69
2018-04-08T12:11:42.013Z,27.68
2018-04-08T12:14:09.565Z,27.75
2018-04-08T12:16:37.161Z,27.48
2018-04-08T12:19:04.785Z,27.70
2018-04-08T12:21:33.580Z,27.79
2018-04-08T12:24:01.151Z,27.61
2018-04-08T12:29:32.787Z,27.33
2018-04-08T12:32:00.264Z,27.67
2018-04-08T12:34:27.738Z,28.32
2018-04-08T12:36:55.248Z,27.86
2018-04-08T12:39:22.718Z,28.96
2018-04-08T12:41:50.473Z,28.44
2018-04-08T12:44:18.006Z,27.32
2018-04-08T12:46:45.484Z,28.11
2018-04-08T12:49:13.046Z,28.40
2018-04-08T12:51:40.807Z,27.46
2018-04-08T12:54:08.572Z,26.08
2018-04-08T12:56:38.342Z,26.75
2018-04-08T12:59:06.200Z,26.43
2018-04-08T13:01:33.755Z,25.04
2018-04-08T13:04:01.278Z,27.24
2018-04-08T13:06:29.771Z,28.17
2018-04-08T13:08:57.319Z,28.58
2018-04-08T13:11:25.075Z,30.35
2018-04-08T13:13:53.507Z,30.48
2018-04-08T13:16:21.052Z,29.25
2018-04-08T13:18:48.593Z,27.86
2018-04-08T13:21:16.077Z,27.96
2018-04-08T13:23:43.556Z,30.15
2018-04-08T13:26:11.039Z,31.14
2018-04-08T13:28:38.547Z,31.26
2018-04-08T13:31:07.048Z,30.95
2018-04-08T13:33:34.948Z,29.47
2018-04-08T13:36:04.064Z,29.28
2018-04-08T13:38:34.090Z,30.40
2018-04-08T13:41:02.721Z,30.88
2018-04-08T13:43:30.533Z,30.52
2018-04-08T13:46:00.482Z,32.36
2018-04-08T13:48:28.205Z,31.91
2018-04-08T13:50:55.727Z,31.03
2018-04-08T13:53:23.564Z,29.77
2018-04-08T13:55:52.140Z,28.49
2018-04-08T13:58:19.617Z,28.94
2018-04-08T14:00:47.187Z,30.15
2018-04-08T14:03:14.909Z,30.92
2018-04-08T14:05:44.959Z,30.88
2018-04-08T14:08:12.724Z,31.68
2018-04-08T14:10:42.412Z,29.42
2018-04-08T14:13:10.140Z,29.33
2018-04-08T14:15:37.684Z,27.94
2018-04-08T14:18:05.228Z,29.53
2018-04-08T14:20:32.710Z,29.93
2018-04-08T14:23:00.215Z,29.95
2018-04-08T14:25:27.910Z,30.10
2018-04-08T14:27:55.811Z,29.80
2018-04-08T14:30:23.365Z,28.94
2018-04-08T14:32:52.017Z,30.16
2018-04-08T14:35:19.538Z,31.03
2018-04-08T14:37:50.857Z,31.60
2018-04-08T14:40:18.932Z,31.28
2018-04-08T14:42:46.599Z,30.66
2018-04-08T14:45:14.365Z,31.21
2018-04-08T14:47:42.027Z,32.70
2018-04-08T14:50:17.530Z,32.02
2018-04-08T14:52:51.384Z,31.23
2018-04-08T14:55:22.101Z,32.81
2018-04-08T14:57:54.517Z,32.40
2018-04-08T15:00:22.271Z,32.48
2018-04-08T15:02:49.890Z,33.43
2018-04-08T15:05:22.339Z,32.33
2018-04-08T15:07:50.278Z,33.64
2018-04-08T15:10:17.835Z,34.24
2018-04-08T15:12:45.482Z,33.55
2018-04-08T15:15:13.095Z,33.67
2018-04-08T15:17:40.994Z,33.58
2018-04-08T15:20:08.542Z,32.57
2018-04-08T15:22:36.630Z,31.57
2018-04-08T15:25:04.320Z,31.19
2018-04-08T15:27:37.761Z,31.11
2018-04-08T15:30:05.282Z,32.69
2018-04-08T15:32:33.977Z,33.18
2018-04-08T15:35:01.511Z,33.04
2018-04-08T15:37:29.048Z,30.50
2018-04-08T15:39:56.698Z,32.21
2018-04-08T15:42:24.349Z,31.15
2018-04-08T15:44:51.885Z,29.96
2018-04-08T15:47:19.484Z,29.14
2018-04-08T15:49:50.570Z,29.15
2018-04-08T15:52:18.756Z,31.22
2018-04-08T15:54:46.415Z,32.00
2018-04-08T15:57:13.995Z,30.29
2018-04-08T15:59:41.573Z,30.23
2018-04-08T16:02:09.177Z,29.44
2018-04-08T16:04:36.852Z,31.31
2018-04-08T16:07:04.508Z,31.68
2018-04-08T16:09:32.087Z,30.97
2018-04-08T16:12:00.505Z,30.85
2018-04-08T16:14:31.510Z,29.33
2018-04-08T16:16:59.077Z,30.03
2018-04-08T16:19:26.678Z,31.20
2018-04-08T16:21:54.258Z,31.12
2018-04-08T16:24:21.830Z,29.78
2018-04-08T16:26:49.438Z,27.24
2018-04-08T16:29:17.219Z,26.45
2018-04-08T16:31:46.460Z,25.39
2018-04-08T16:34:14.281Z,24.86
2018-04-08T16:36:41.873Z,24.15
2018-04-08T16:39:09.460Z,23.22
2018-04-08T16:41:37.062Z,23.14
2018-04-08T16:44:04.611Z,22.77
2018-04-08T16:46:33.301Z,21.49
2018-04-08T16:49:00.819Z,20.88
2018-04-08T16:51:28.361Z,20.23
2018-04-08T16:53:57.940Z,20.22
2018-04-08T16:56:25.479Z,19.84
2018-04-08T16:58:53.005Z,19.08
2018-04-08T17:01:20.552Z,18.42
2018-04-08T17:03:48.085Z,17.88
2018-04-08T17:06:15.611Z,17.39
2018-04-08T17:08:43.160Z,17.02
2018-04-08T17:11:10.900Z,16.71
2018-04-08T17:13:38.501Z,16.37
2018-04-08T17:16:06.029Z,16.26
2018-04-08T17:18:34.342Z,16.10
2018-04-08T17:21:01.845Z,15.91
2018-04-08T17:23:29.355Z,15.74
2018-04-08T17:25:58.280Z,15.58
2018-04-08T17:28:26.019Z,15.50
2018-04-08T17:30:53.707Z,15.41
2018-04-08T17:33:21.704Z,15.28
2018-04-08T17:35:49.540Z,15.15
2018-04-08T17:38:17.132Z,15.01
2018-04-08T17:40:45.330Z,14.96
2018-04-08T17:43:12.974Z,14.89
2018-04-08T17:45:40.497Z,14.92
2018-04-08T17:48:08.071Z,14.94
2018-04-08T17:50:43.366Z,14.96
2018-04-08T17:53:11.320Z,14.88
2018-04-08T17:55:39.498Z,14.72
2018-04-08T17:58:07.043Z,14.67
2018-04-08T18:00:34.838Z,14.54
2018-04-08T18:03:02.490Z,14.43
2018-04-08T18:05:30.024Z,14.28
2018-04-08T18:07:57.675Z,14.13
2018-04-08T18:10:25.235Z,14.08
2018-04-08T18:12:52.922Z,13.95
2018-04-08T18:15:21.155Z,13.94
2018-04-08T18:17:48.776Z,13.90
2018-04-08T18:20:16.307Z,13.73
2018-04-08T18:22:45.254Z,13.63
2018-04-08T18:25:13.230Z,13.55
2018-04-08T18:27:43.229Z,13.43
2018-04-08T18:30:10.875Z,13.39
2018-04-08T18:32:40.008Z,13.25
2018-04-08T18:35:07.559Z,13.07
2018-04-08T18:37:35.215Z,12.90
2018-04-08T18:40:04.471Z,12.92
2018-04-08T18:42:40.130Z,12.82
2018-04-08T18:45:09.384Z,12.73
2018-04-08T18:47:38.292Z,12.65
2018-04-08T18:50:14.610Z,12.58
2018-04-08T18:52:42.540Z,12.44
2018-04-08T18:55:10.121Z,12.31
2018-04-08T18:57:38.974Z,12.26
2018-04-08T19:00:06.602Z,12.18
2018-04-08T19:02:34.148Z,12.02
2018-04-08T19:05:01.733Z,11.95
2018-04-08T19:07:29.595Z,11.87
2018-04-08T19:09:57.374Z,11.75
2018-04-08T19:12:24.865Z,11.70
2018-04-08T19:14:58.054Z,11.65
2018-04-08T19:17:31.754Z,11.59
2018-04-08T19:19:59.310Z,11.57
2018-04-08T19:22:27.914Z,11.50
2018-04-08T19:24:56.169Z,11.40
2018-04-08T19:27:29.799Z,11.33
2018-04-08T19:29:57.342Z,11.26
2018-04-08T19:32:24.920Z,11.17
2018-04-08T19:34:52.451Z,11.11
2018-04-08T19:37:19.980Z,11.07
2018-04-08T19:39:47.593Z,11.02
2018-04-08T19:42:15.155Z,11.00
2018-04-08T19:44:42.685Z,10.92
2018-04-08T19:47:11.223Z,10.86
2018-04-08T19:49:38.871Z,10.76
2018-04-08T19:52:06.530Z,10.75
2018-04-08T19:54:34.431Z,10.71
2018-04-08T19:57:01.947Z,10.67
2018-04-08T19:59:30.444Z,10.59
2018-04-08T20:01:58.161Z,10.57
2018-04-08T20:04:25.794Z,10.50
2018-04-08T20:06:53.318Z,10.52
2018-04-08T20:09:20.872Z,10.55
2018-04-08T20:11:48.371Z,10.49
2018-04-08T20:14:15.960Z,10.46
2018-04-08T20:16:43.775Z,10.39
2018-04-08T20:19:11.649Z,10.33
2018-04-08T20:21:39.259Z,10.27
2018-04-08T20:24:06.816Z,10.18
2018-04-08T20:26:34.466Z,10.10
2018-04-08T20:29:02.060Z,10.07
2018-04-08T20:31:30.636Z,10.04
2018-04-08T20:33:58.197Z,9.98
2018-04-08T20:36:25.969Z,9.93
2018-04-08T20:38:53.479Z,9.88
2018-04-08T20:41:21.003Z,9.87
2018-04-08T20:43:49.695Z,9.88
2018-04-08T20:46:17.502Z,9.97
2018-04-08T20:48:45.061Z,10.07
2018-04-08T20:51:12.615Z,10.07
2018-04-08T20:53:41.122Z,9.98
2018-04-08T20:56:08.614Z,9.89
2018-04-08T20:58:36.155Z,9.72
2018-04-08T21:03:54.202Z,9.52
2018-04-08T21:09:11.955Z,9.47
2018-04-08T21:11:39.440Z,9.45
2018-04-08T21:14:06.982Z,9.44
2018-04-08T21:16:34.531Z,9.33
2018-04-08T21:19:02.103Z,9.22
2018-04-08T21:21:29.646Z,9.20
2018-04-08T21:23:57.792Z,9.23
2018-04-08T21:26:25.335Z,9.18
2018-04-08T21:28:52.955Z,9.18
2018-04-08T21:31:21.012Z,9.12
2018-04-08T21:33:48.590Z,9.05
2018-04-08T21:39:06.645Z,9.01
2018-04-08T21:41:34.137Z,9.01
2018-04-08T21:44:01.651Z,8.99
2018-04-08T21:46:29.233Z,9.02
2018-04-08T21:48:56.884Z,9.00
2018-04-08T21:51:24.979Z,8.95
2018-04-08T21:53:52.549Z,8.89
2018-04-08T21:56:20.201Z,8.81
2018-04-08T21:58:47.874Z,8.79
2018-04-08T22:01:15.448Z,8.79
2018-04-08T22:03:45.032Z,8.75
2018-04-08T22:06:12.594Z,8.71
2018-04-08T22:08:40.161Z,8.66
2018-04-08T22:11:07.989Z,8.64
2018-04-08T22:13:37.090Z,8.67
2018-04-08T22:16:04.624Z,8.67
2018-04-08T22:18:34.459Z,8.67
2018-04-08T22:21:02.090Z,8.61
2018-04-08T22:23:30.616Z,8.58
2018-04-08T22:25:58.197Z,8.54
2018-04-08T22:28:25.726Z,8.50
2018-04-08T22:30:53.221Z,8.53
2018-04-08T22:33:20.963Z,8.44
2018-04-08T22:35:48.483Z,8.37
2018-04-08T22:38:16.026Z,8.35
2018-04-08T22:40:45.353Z,8.32
2018-04-08T22:43:12.902Z,8.28
2018-04-08T22:45:40.436Z,8.27
2018-04-08T22:48:08.017Z,8.32
2018-04-08T22:50:36.155Z,8.26
2018-04-08T22:53:03.777Z,8.20
2018-04-08T22:55:33.119Z,8.23
2018-04-08T22:58:00.662Z,8.25
2018-04-08T23:00:28.194Z,8.27
2018-04-08T23:02:55.698Z,8.22
2018-04-08T23:05:23.532Z,8.19
2018-04-08T23:07:51.011Z,8.13
2018-04-08T23:10:18.477Z,8.09
2018-04-08T23:12:45.983Z,8.08
2018-04-08T23:15:13.770Z,8.02
2018-04-08T23:17:41.456Z,8.02
2018-04-08T23:20:09.000Z,8.03
2018-04-08T23:22:36.537Z,8.01
2018-04-08T23:25:04.084Z,8.01
2018-04-08T23:27:33.068Z,8.02
2018-04-08T23:30:00.591Z,7.94
2018-04-08T23:32:28.416Z,7.89
2018-04-08T23:34:55.917Z,7.83
2018-04-08T23:37:23.612Z,7.80
2018-04-08T23:39:51.151Z,7.82
2018-04-08T23:45:09.106Z,7.90
2018-04-08T23:47:36.655Z,7.91
2018-04-08T23:50:04.206Z,7.83
2018-04-08T23:52:31.738Z,7.76
2018-04-08T23:54:59.293Z,7.67
2018-04-08T23:57:26.838Z,7.58
2018-04-08T23:59:54.367Z,7.49
